sensor_id;sensor_type;location;lat;lon;timestamp;P1;durP1;ratioP1;P2;durP2;ratioP2
72123;SDS011;63818;37.134;-8.548;2022-12-29T00:04:13;-1.0;;;-1.0;;
72123;SDS011;63818;37.134;-8.548;2022-12-29T00:09:02;-1.0;;;-1.0;;
72123;SDS011;63818;37.134;-8.548;2022-12-29T00:13:53;-1.0;;;-1.0;;
72123;SDS011;63818;37.134;-8.548;2022-12-29T00:18:42;-1.0;;;-1.0;;
72123;SDS011;63818;37.134;-8.548;2022-12-29T00:23:31;-1.0;;;-1.0;;
72123;SDS011;63818;37.134;-8.548;2022-12-29T00:28:20;-1.0;;;-1.0;;
72123;SDS011;63818;37.134;-8.548;2022-12-29T00:33:13;-1.0;;;-1.0;;
72123;SDS011;63818;37.134;-8.548;2022-12-29T00:38:05;-1.0;;;-1.0;;
72123;SDS011;63818;37.134;-8.548;2022-12-29T00:42:55;-1.0;;;-1.0;;
72123;SDS011;63818;37.134;-8.548;2022-12-29T00:47:44;-1.0;;;-1.0;;
72123;SDS011;63818;37.134;-8.548;2022-12-29T00:52:33;-1.0;;;-1.0;;
72123;SDS011;63818;37.134;-8.548;2022-12-29T00:57:22;-1.0;;;-1.0;;
72123;SDS011;63818;37.134;-8.548;2022-12-29T01:02:13;-1.0;;;-1.0;;
72123;SDS011;63818;37.134;-8.548;2022-12-29T01:07:02;-1.0;;;-1.0;;
72123;SDS011;63818;37.134;-8.548;2022-12-29T01:11:51;-1.0;;;-1.0;;
72123;SDS011;63818;37.134;-8.548;2022-12-29T01:16:40;-1.0;;;-1.0;;
72123;SDS011;63818;37.134;-8.548;2022-12-29T01:21:28;-1.0;;;-1.0;;
72123;SDS011;63818;37.134;-8.548;2022-12-29T01:26:18;-1.0;;;-1.0;;
72123;SDS011;63818;37.134;-8.548;2022-12-29T01:31:06;-1.0;;;-1.0;;
72123;SDS011;63818;37.134;-8.548;2022-12-29T01:36:01;-1.0;;;-1.0;;
72123;SDS011;63818;37.134;-8.548;2022-12-29T01:40:50;-1.0;;;-1.0;;
72123;SDS011;63818;37.134;-8.548;2022-12-29T01:45:45;-1.0;;;-1.0;;
72123;SDS011;63818;37.134;-8.548;2022-12-29T01:50:37;-1.0;;;-1.0;;
72123;SDS011;63818;37.134;-8.548;2022-12-29T01:55:30;-1.0;;;-1.0;;
72123;SDS011;63818;37.134;-8.548;2022-12-29T02:00:21;-1.0;;;-1.0;;
72123;SDS011;63818;37.134;-8.548;2022-12-29T02:05:14;-1.0;;;-1.0;;
72123;SDS011;63818;37.134;-8.548;2022-12-29T02:10:08;-1.0;;;-1.0;;
72123;SDS011;63818;37.134;-8.548;2022-12-29T02:14:57;-1.0;;;-1.0;;
72123;SDS011;63818;37.134;-8.548;2022-12-29T02:20:02;-1.0;;;-1.0;;
72123;SDS011;63818;37.134;-8.548;2022-12-29T02:27:07;-1.0;;;-1.0;;
72123;SDS011;63818;37.134;-8.548;2022-12-29T02:34:15;-1.0;;;-1.0;;
72123;SDS011;63818;37.134;-8.548;2022-12-29T02:39:12;-1.0;;;-1.0;;
72123;SDS011;63818;37.134;-8.548;2022-12-29T02:44:08;-1.0;;;-1.0;;
72123;SDS011;63818;37.134;-8.548;2022-12-29T02:49:06;-1.0;;;-1.0;;
72123;SDS011;63818;37.134;-8.548;2022-12-29T02:53:59;-1.0;;;-1.0;;
72123;SDS011;63818;37.134;-8.548;2022-12-29T02:58:48;-1.0;;;-1.0;;
72123;SDS011;63818;37.134;-8.548;2022-12-29T03:03:43;-1.0;;;-1.0;;
72123;SDS011;63818;37.134;-8.548;2022-12-29T03:08:38;-1.0;;;-1.0;;
72123;SDS011;63818;37.134;-8.548;2022-12-29T03:13:34;-1.0;;;-1.0;;
72123;SDS011;63818;37.134;-8.548;2022-12-29T03:18:30;-1.0;;;-1.0;;
72123;SDS011;63818;37.134;-8.548;2022-12-29T03:23:25;-1.0;;;-1.0;;
72123;SDS011;63818;37.134;-8.548;2022-12-29T03:28:18;-1.0;;;-1.0;;
72123;SDS011;63818;37.134;-8.548;2022-12-29T03:33:12;-1.0;;;-1.0;;
72123;SDS011;63818;37.134;-8.548;2022-12-29T03:38:07;-1.0;;;-1.0;;
72123;SDS011;63818;37.134;-8.548;2022-12-29T03:43:00;-1.0;;;-1.0;;
72123;SDS011;63818;37.134;-8.548;2022-12-29T03:47:50;-1.0;;;-1.0;;
72123;SDS011;63818;37.134;-8.548;2022-12-29T03:52:42;-1.0;;;-1.0;;
72123;SDS011;63818;37.134;-8.548;2022-12-29T03:57:31;-1.0;;;-1.0;;
72123;SDS011;63818;37.134;-8.548;2022-12-29T04:02:20;-1.0;;;-1.0;;
72123;SDS011;63818;37.134;-8.548;2022-12-29T04:07:11;-1.0;;;-1.0;;
72123;SDS011;63818;37.134;-8.548;2022-12-29T04:12:00;-1.0;;;-1.0;;
72123;SDS011;63818;37.134;-8.548;2022-12-29T04:16:49;-1.0;;;-1.0;;
72123;SDS011;63818;37.134;-8.548;2022-12-29T04:21:41;-1.0;;;-1.0;;
72123;SDS011;63818;37.134;-8.548;2022-12-29T04:26:30;-1.0;;;-1.0;;
72123;SDS011;63818;37.134;-8.548;2022-12-29T04:31:21;-1.0;;;-1.0;;
72123;SDS011;63818;37.134;-8.548;2022-12-29T04:36:12;-1.0;;;-1.0;;
72123;SDS011;63818;37.134;-8.548;2022-12-29T04:41:03;-1.0;;;-1.0;;
72123;SDS011;63818;37.134;-8.548;2022-12-29T04:45:55;-1.0;;;-1.0;;
72123;SDS011;63818;37.134;-8.548;2022-12-29T04:50:46;-1.0;;;-1.0;;
72123;SDS011;63818;37.134;-8.548;2022-12-29T04:55:38;-1.0;;;-1.0;;
72123;SDS011;63818;37.134;-8.548;2022-12-29T05:00:29;-1.0;;;-1.0;;
72123;SDS011;63818;37.134;-8.548;2022-12-29T05:05:18;-1.0;;;-1.0;;
72123;SDS011;63818;37.134;-8.548;2022-12-29T05:10:08;-1.0;;;-1.0;;
72123;SDS011;63818;37.134;-8.548;2022-12-29T05:14:59;-1.0;;;-1.0;;
72123;SDS011;63818;37.134;-8.548;2022-12-29T05:19:48;-1.0;;;-1.0;;
72123;SDS011;63818;37.134;-8.548;2022-12-29T05:24:38;-1.0;;;-1.0;;
72123;SDS011;63818;37.134;-8.548;2022-12-29T05:29:27;-1.0;;;-1.0;;
72123;SDS011;63818;37.134;-8.548;2022-12-29T05:34:15;-1.0;;;-1.0;;
72123;SDS011;63818;37.134;-8.548;2022-12-29T05:39:04;-1.0;;;-1.0;;
72123;SDS011;63818;37.134;-8.548;2022-12-29T05:43:53;-1.0;;;-1.0;;
72123;SDS011;63818;37.134;-8.548;2022-12-29T05:48:42;-1.0;;;-1.0;;
72123;SDS011;63818;37.134;-8.548;2022-12-29T05:53:31;-1.0;;;-1.0;;
72123;SDS011;63818;37.134;-8.548;2022-12-29T05:58:22;-1.0;;;-1.0;;
72123;SDS011;63818;37.134;-8.548;2022-12-29T06:03:13;-1.0;;;-1.0;;
72123;SDS011;63818;37.134;-8.548;2022-12-29T06:08:05;-1.0;;;-1.0;;
72123;SDS011;63818;37.134;-8.548;2022-12-29T06:12:54;-1.0;;;-1.0;;
72123;SDS011;63818;37.134;-8.548;2022-12-29T06:17:43;-1.0;;;-1.0;;
72123;SDS011;63818;37.134;-8.548;2022-12-29T06:22:35;-1.0;;;-1.0;;
72123;SDS011;63818;37.134;-8.548;2022-12-29T06:27:24;-1.0;;;-1.0;;
72123;SDS011;63818;37.134;-8.548;2022-12-29T06:32:13;-1.0;;;-1.0;;
72123;SDS011;63818;37.134;-8.548;2022-12-29T06:37:02;-1.0;;;-1.0;;
72123;SDS011;63818;37.134;-8.548;2022-12-29T06:41:53;-1.0;;;-1.0;;
72123;SDS011;63818;37.134;-8.548;2022-12-29T06:46:42;-1.0;;;-1.0;;
72123;SDS011;63818;37.134;-8.548;2022-12-29T06:51:31;-1.0;;;-1.0;;
72123;SDS011;63818;37.134;-8.548;2022-12-29T06:56:20;-1.0;;;-1.0;;
72123;SDS011;63818;37.134;-8.548;2022-12-29T07:01:09;-1.0;;;-1.0;;
72123;SDS011;63818;37.134;-8.548;2022-12-29T07:05:58;-1.0;;;-1.0;;
72123;SDS011;63818;37.134;-8.548;2022-12-29T07:10:47;-1.0;;;-1.0;;
72123;SDS011;63818;37.134;-8.548;2022-12-29T07:15:36;-1.0;;;-1.0;;
72123;SDS011;63818;37.134;-8.548;2022-12-29T07:20:28;-1.0;;;-1.0;;
72123;SDS011;63818;37.134;-8.548;2022-12-29T07:25:17;-1.0;;;-1.0;;
72123;SDS011;63818;37.134;-8.548;2022-12-29T07:30:06;-1.0;;;-1.0;;
72123;SDS011;63818;37.134;-8.548;2022-12-29T07:34:55;-1.0;;;-1.0;;
72123;SDS011;63818;37.134;-8.548;2022-12-29T07:39:44;-1.0;;;-1.0;;
72123;SDS011;63818;37.134;-8.548;2022-12-29T07:44:34;-1.0;;;-1.0;;
72123;SDS011;63818;37.134;-8.548;2022-12-29T07:49:23;-1.0;;;-1.0;;
72123;SDS011;63818;37.134;-8.548;2022-12-29T07:54:15;-1.0;;;-1.0;;
72123;SDS011;63818;37.134;-8.548;2022-12-29T07:59:05;-1.0;;;-1.0;;
72123;SDS011;63818;37.134;-8.548;2022-12-29T08:03:54;-1.0;;;-1.0;;
72123;SDS011;63818;37.134;-8.548;2022-12-29T08:08:43;-1.0;;;-1.0;;
72123;SDS011;63818;37.134;-8.548;2022-12-29T08:13:32;-1.0;;;-1.0;;
72123;SDS011;63818;37.134;-8.548;2022-12-29T08:18:23;-1.0;;;-1.0;;
72123;SDS011;63818;37.134;-8.548;2022-12-29T08:23:14;-1.0;;;-1.0;;
72123;SDS011;63818;37.134;-8.548;2022-12-29T08:28:03;-1.0;;;-1.0;;
72123;SDS011;63818;37.134;-8.548;2022-12-29T08:32:52;-1.0;;;-1.0;;
72123;SDS011;63818;37.134;-8.548;2022-12-29T08:37:44;-1.0;;;-1.0;;
72123;SDS011;63818;37.134;-8.548;2022-12-29T08:42:32;-1.0;;;-1.0;;
72123;SDS011;63818;37.134;-8.548;2022-12-29T08:47:26;-1.0;;;-1.0;;
72123;SDS011;63818;37.134;-8.548;2022-12-29T08:52:15;-1.0;;;-1.0;;
72123;SDS011;63818;37.134;-8.548;2022-12-29T08:57:05;-1.0;;;-1.0;;
72123;SDS011;63818;37.134;-8.548;2022-12-29T09:01:55;-1.0;;;-1.0;;
72123;SDS011;63818;37.134;-8.548;2022-12-29T09:06:44;-1.0;;;-1.0;;
72123;SDS011;63818;37.134;-8.548;2022-12-29T09:11:33;-1.0;;;-1.0;;
72123;SDS011;63818;37.134;-8.548;2022-12-29T09:16:23;-1.0;;;-1.0;;
72123;SDS011;63818;37.134;-8.548;2022-12-29T09:21:14;-1.0;;;-1.0;;
72123;SDS011;63818;37.134;-8.548;2022-12-29T09:26:09;-1.0;;;-1.0;;
72123;SDS011;63818;37.134;-8.548;2022-12-29T09:30:58;-1.0;;;-1.0;;
72123;SDS011;63818;37.134;-8.548;2022-12-29T09:35:49;-1.0;;;-1.0;;
72123;SDS011;63818;37.134;-8.548;2022-12-29T09:40:40;-1.0;;;-1.0;;
72123;SDS011;63818;37.134;-8.548;2022-12-29T09:45:29;-1.0;;;-1.0;;
72123;SDS011;63818;37.134;-8.548;2022-12-29T09:50:24;-1.0;;;-1.0;;
72123;SDS011;63818;37.134;-8.548;2022-12-29T09:55:17;-1.0;;;-1.0;;
72123;SDS011;63818;37.134;-8.548;2022-12-29T10:00:13;-1.0;;;-1.0;;
72123;SDS011;63818;37.134;-8.548;2022-12-29T10:05:08;-1.0;;;-1.0;;
72123;SDS011;63818;37.134;-8.548;2022-12-29T10:10:10;-1.0;;;-1.0;;
72123;SDS011;63818;37.134;-8.548;2022-12-29T10:15:17;-1.0;;;-1.0;;
72123;SDS011;63818;37.134;-8.548;2022-12-29T10:20:30;-1.0;;;-1.0;;
72123;SDS011;63818;37.134;-8.548;2022-12-29T10:25:25;-1.0;;;-1.0;;
72123;SDS011;63818;37.134;-8.548;2022-12-29T10:30:16;-1.0;;;-1.0;;
72123;SDS011;63818;37.134;-8.548;2022-12-29T10:35:09;-1.0;;;-1.0;;
72123;SDS011;63818;37.134;-8.548;2022-12-29T10:40:11;-1.0;;;-1.0;;
72123;SDS011;63818;37.134;-8.548;2022-12-29T10:45:03;-1.0;;;-1.0;;
72123;SDS011;63818;37.134;-8.548;2022-12-29T10:49:53;-1.0;;;-1.0;;
72123;SDS011;63818;37.134;-8.548;2022-12-29T10:54:44;-1.0;;;-1.0;;
72123;SDS011;63818;37.134;-8.548;2022-12-29T10:59:34;-1.0;;;-1.0;;
72123;SDS011;63818;37.134;-8.548;2022-12-29T11:04:28;-1.0;;;-1.0;;
72123;SDS011;63818;37.134;-8.548;2022-12-29T11:09:31;-1.0;;;-1.0;;
72123;SDS011;63818;37.134;-8.548;2022-12-29T11:14:21;-1.0;;;-1.0;;
72123;SDS011;63818;37.134;-8.548;2022-12-29T11:19:23;-1.0;;;-1.0;;
72123;SDS011;63818;37.134;-8.548;2022-12-29T11:24:23;-1.0;;;-1.0;;
72123;SDS011;63818;37.134;-8.548;2022-12-29T11:29:36;-1.0;;;-1.0;;
72123;SDS011;63818;37.134;-8.548;2022-12-29T11:34:26;-1.0;;;-1.0;;
72123;SDS011;63818;37.134;-8.548;2022-12-29T11:39:26;-1.0;;;-1.0;;
72123;SDS011;63818;37.134;-8.548;2022-12-29T11:44:18;-1.0;;;-1.0;;
72123;SDS011;63818;37.134;-8.548;2022-12-29T11:49:10;-1.0;;;-1.0;;
72123;SDS011;63818;37.134;-8.548;2022-12-29T11:54:02;-1.0;;;-1.0;;
72123;SDS011;63818;37.134;-8.548;2022-12-29T11:58:53;-1.0;;;-1.0;;
72123;SDS011;63818;37.134;-8.548;2022-12-29T12:03:42;-1.0;;;-1.0;;
72123;SDS011;63818;37.134;-8.548;2022-12-29T12:08:37;-1.0;;;-1.0;;
72123;SDS011;63818;37.134;-8.548;2022-12-29T12:13:35;-1.0;;;-1.0;;
72123;SDS011;63818;37.134;-8.548;2022-12-29T12:18:50;-1.0;;;-1.0;;
72123;SDS011;63818;37.134;-8.548;2022-12-29T12:20:16;-1.0;;;-1.0;;
72123;SDS011;63818;37.134;-8.548;2022-12-29T12:25:16;18.5;;;6.9;;
72123;SDS011;63818;37.134;-8.548;2022-12-29T12:26:27;22.2;;;6.4;;
72123;SDS011;63818;37.134;-8.548;2022-12-29T12:28:11;10.1;;;6.3;;
72123;SDS011;63818;37.134;-8.548;2022-12-29T12:29:50;15.1;;;6.4;;
72123;SDS011;63818;37.134;-8.548;2022-12-29T12:34:41;12.9;;;6.4;;
72123;SDS011;63818;37.134;-8.548;2022-12-29T12:39:36;11.8;;;7.4;;
72123;SDS011;63818;37.134;-8.548;2022-12-29T12:44:35;12.9;;;7.2;;
72123;SDS011;63818;37.134;-8.548;2022-12-29T12:50:13;12.0;;;5.8;;
72123;SDS011;63818;37.134;-8.548;2022-12-29T12:55:17;10.8;;;5.8;;
72123;SDS011;63818;37.134;-8.548;2022-12-29T13:00:11;10.1;;;5.7;;
72123;SDS011;63818;37.134;-8.548;2022-12-29T13:05:02;10.1;;;5.4;;
72123;SDS011;63818;37.134;-8.548;2022-12-29T13:10:01;10.2;;;5.4;;
72123;SDS011;63818;37.134;-8.548;2022-12-29T13:14:59;9.2;;;5.5;;
72123;SDS011;63818;37.134;-8.548;2022-12-29T13:19:55;12.6;;;5.6;;
72123;SDS011;63818;37.134;-8.548;2022-12-29T13:24:50;16.9;;;6.9;;
72123;SDS011;63818;37.134;-8.548;2022-12-29T13:29:43;16.8;;;7.3;;
72123;SDS011;63818;37.134;-8.548;2022-12-29T13:34:38;17.9;;;6.1;;
72123;SDS011;63818;37.134;-8.548;2022-12-29T13:39:33;17.6;;;5.5;;
72123;SDS011;63818;37.134;-8.548;2022-12-29T13:44:23;15.5;;;5.5;;
72123;SDS011;63818;37.134;-8.548;2022-12-29T13:49:14;17.8;;;5.8;;
72123;SDS011;63818;37.134;-8.548;2022-12-29T13:54:09;17.9;;;6.0;;
72123;SDS011;63818;37.134;-8.548;2022-12-29T13:59:04;14.4;;;5.5;;
72123;SDS011;63818;37.134;-8.548;2022-12-29T14:03:57;16.6;;;5.2;;
72123;SDS011;63818;37.134;-8.548;2022-12-29T14:08:45;14.5;;;5.0;;
72123;SDS011;63818;37.134;-8.548;2022-12-29T14:13:33;9.8;;;4.9;;
72123;SDS011;63818;37.134;-8.548;2022-12-29T14:18:24;11.1;;;4.8;;
72123;SDS011;63818;37.134;-8.548;2022-12-29T14:23:25;13.5;;;6.1;;
72123;SDS011;63818;37.134;-8.548;2022-12-29T14:28:24;16.2;;;7.9;;
72123;SDS011;63818;37.134;-8.548;2022-12-29T14:33:20;16.3;;;8.8;;
72123;SDS011;63818;37.134;-8.548;2022-12-29T14:38:18;14.3;;;8.6;;
72123;SDS011;63818;37.134;-8.548;2022-12-29T14:43:06;14.4;;;7.7;;
72123;SDS011;63818;37.134;-8.548;2022-12-29T14:48:04;15.6;;;7.3;;
72123;SDS011;63818;37.134;-8.548;2022-12-29T14:53:43;13.1;;;6.8;;
72123;SDS011;63818;37.134;-8.548;2022-12-29T14:58:31;12.4;;;6.2;;
72123;SDS011;63818;37.134;-8.548;2022-12-29T15:03:24;13.1;;;5.9;;
72123;SDS011;63818;37.134;-8.548;2022-12-29T15:08:16;13.6;;;5.8;;
72123;SDS011;63818;37.134;-8.548;2022-12-29T15:13:13;15.7;;;5.9;;
72123;SDS011;63818;37.134;-8.548;2022-12-29T15:18:13;19.1;;;6.9;;
72123;SDS011;63818;37.134;-8.548;2022-12-29T15:23:00;16.0;;;6.8;;
72123;SDS011;63818;37.134;-8.548;2022-12-29T15:27:50;11.5;;;5.5;;
72123;SDS011;63818;37.134;-8.548;2022-12-29T15:32:42;14.9;;;5.6;;
72123;SDS011;63818;37.134;-8.548;2022-12-29T15:37:32;14.4;;;5.7;;
72123;SDS011;63818;37.134;-8.548;2022-12-29T15:42:29;10.2;;;5.2;;
72123;SDS011;63818;37.134;-8.548;2022-12-29T15:47:23;14.0;;;5.4;;
72123;SDS011;63818;37.134;-8.548;2022-12-29T15:52:13;17.8;;;5.6;;
72123;SDS011;63818;37.134;-8.548;2022-12-29T15:57:21;14.0;;;5.0;;
72123;SDS011;63818;37.134;-8.548;2022-12-29T16:02:10;9.9;;;5.1;;
72123;SDS011;63818;37.134;-8.548;2022-12-29T16:06:59;12.4;;;6.0;;
72123;SDS011;63818;37.134;-8.548;2022-12-29T16:11:50;13.4;;;6.1;;
72123;SDS011;63818;37.134;-8.548;2022-12-29T16:16:57;10.8;;;5.4;;
72123;SDS011;63818;37.134;-8.548;2022-12-29T16:21:48;11.3;;;5.4;;
72123;SDS011;63818;37.134;-8.548;2022-12-29T16:26:35;12.2;;;5.5;;
72123;SDS011;63818;37.134;-8.548;2022-12-29T16:31:23;14.5;;;5.7;;
72123;SDS011;63818;37.134;-8.548;2022-12-29T16:38:06;14.9;;;5.6;;
72123;SDS011;63818;37.134;-8.548;2022-12-29T16:43:03;14.0;;;5.5;;
72123;SDS011;63818;37.134;-8.548;2022-12-29T16:47:53;13.7;;;5.5;;
72123;SDS011;63818;37.134;-8.548;2022-12-29T16:52:49;15.8;;;5.5;;
72123;SDS011;63818;37.134;-8.548;2022-12-29T16:57:35;14.3;;;5.5;;
72123;SDS011;63818;37.134;-8.548;2022-12-29T17:02:31;10.5;;;6.0;;
72123;SDS011;63818;37.134;-8.548;2022-12-29T17:07:21;14.5;;;6.0;;
72123;SDS011;63818;37.134;-8.548;2022-12-29T17:12:10;16.4;;;5.6;;
72123;SDS011;63818;37.134;-8.548;2022-12-29T17:17:01;16.5;;;5.7;;
72123;SDS011;63818;37.134;-8.548;2022-12-29T17:21:49;15.2;;;5.6;;
72123;SDS011;63818;37.134;-8.548;2022-12-29T17:26:37;13.8;;;5.4;;
72123;SDS011;63818;37.134;-8.548;2022-12-29T17:31:23;16.9;;;5.7;;
72123;SDS011;63818;37.134;-8.548;2022-12-29T17:36:15;15.3;;;6.3;;
72123;SDS011;63818;37.134;-8.548;2022-12-29T17:41:07;14.3;;;6.7;;
72123;SDS011;63818;37.134;-8.548;2022-12-29T17:46:01;15.1;;;6.2;;
72123;SDS011;63818;37.134;-8.548;2022-12-29T17:50:48;12.0;;;5.9;;
72123;SDS011;63818;37.134;-8.548;2022-12-29T17:55:36;11.9;;;5.7;;
72123;SDS011;63818;37.134;-8.548;2022-12-29T18:00:23;13.4;;;5.9;;
72123;SDS011;63818;37.134;-8.548;2022-12-29T18:05:14;13.8;;;6.0;;
72123;SDS011;63818;37.134;-8.548;2022-12-29T18:10:03;13.4;;;6.0;;
72123;SDS011;63818;37.134;-8.548;2022-12-29T18:14:52;13.6;;;6.2;;
72123;SDS011;63818;37.134;-8.548;2022-12-29T18:19:38;15.2;;;6.1;;
72123;SDS011;63818;37.134;-8.548;2022-12-29T18:24:27;17.0;;;6.1;;
72123;SDS011;63818;37.134;-8.548;2022-12-29T18:29:15;17.4;;;6.1;;
72123;SDS011;63818;37.134;-8.548;2022-12-29T18:34:05;13.1;;;6.1;;
72123;SDS011;63818;37.134;-8.548;2022-12-29T18:38:57;10.9;;;6.2;;
72123;SDS011;63818;37.134;-8.548;2022-12-29T18:43:46;13.8;;;6.2;;
72123;SDS011;63818;37.134;-8.548;2022-12-29T18:48:33;15.9;;;6.2;;
72123;SDS011;63818;37.134;-8.548;2022-12-29T18:53:20;15.9;;;6.4;;
72123;SDS011;63818;37.134;-8.548;2022-12-29T18:58:10;13.5;;;6.4;;
72123;SDS011;63818;37.134;-8.548;2022-12-29T19:02:58;12.4;;;6.2;;
72123;SDS011;63818;37.134;-8.548;2022-12-29T19:07:44;16.0;;;6.8;;
72123;SDS011;63818;37.134;-8.548;2022-12-29T19:12:33;15.6;;;7.0;;
72123;SDS011;63818;37.134;-8.548;2022-12-29T19:17:19;13.0;;;7.2;;
72123;SDS011;63818;37.134;-8.548;2022-12-29T19:22:06;19.8;;;6.8;;
72123;SDS011;63818;37.134;-8.548;2022-12-29T19:27:15;12.7;;;5.8;;
72123;SDS011;63818;37.134;-8.548;2022-12-29T19:32:02;11.3;;;6.0;;
72123;SDS011;63818;37.134;-8.548;2022-12-29T19:36:48;13.7;;;6.3;;
72123;SDS011;63818;37.134;-8.548;2022-12-29T19:41:35;16.9;;;6.3;;
72123;SDS011;63818;37.134;-8.548;2022-12-29T19:46:22;18.6;;;6.4;;
72123;SDS011;63818;37.134;-8.548;2022-12-29T19:51:11;17.6;;;7.0;;
72123;SDS011;63818;37.134;-8.548;2022-12-29T19:56:01;15.2;;;7.6;;
72123;SDS011;63818;37.134;-8.548;2022-12-29T20:05:51;17.4;;;9.9;;
72123;SDS011;63818;37.134;-8.548;2022-12-29T20:10:39;21.8;;;11.8;;
72123;SDS011;63818;37.134;-8.548;2022-12-29T20:15:27;23.2;;;12.8;;
72123;SDS011;63818;37.134;-8.548;2022-12-29T20:20:13;20.1;;;11.4;;
72123;SDS011;63818;37.134;-8.548;2022-12-29T20:25:02;21.3;;;10.6;;
72123;SDS011;63818;37.134;-8.548;2022-12-29T20:29:50;24.5;;;11.4;;
72123;SDS011;63818;37.134;-8.548;2022-12-29T20:34:39;22.4;;;11.2;;
72123;SDS011;63818;37.134;-8.548;2022-12-29T20:39:26;22.4;;;12.4;;
72123;SDS011;63818;37.134;-8.548;2022-12-29T20:44:20;25.0;;;13.7;;
72123;SDS011;63818;37.134;-8.548;2022-12-29T20:49:06;29.9;;;16.2;;
72123;SDS011;63818;37.134;-8.548;2022-12-29T20:53:53;32.9;;;18.9;;
72123;SDS011;63818;37.134;-8.548;2022-12-29T20:58:45;38.4;;;18.5;;
72123;SDS011;63818;37.134;-8.548;2022-12-29T21:03:34;37.5;;;18.2;;
72123;SDS011;63818;37.134;-8.548;2022-12-29T21:08:21;34.7;;;19.6;;
72123;SDS011;63818;37.134;-8.548;2022-12-29T21:13:09;34.2;;;20.2;;
72123;SDS011;63818;37.134;-8.548;2022-12-29T21:17:55;32.6;;;20.2;;
72123;SDS011;63818;37.134;-8.548;2022-12-29T21:22:41;37.8;;;22.0;;
72123;SDS011;63818;37.134;-8.548;2022-12-29T21:27:27;37.3;;;22.9;;
72123;SDS011;63818;37.134;-8.548;2022-12-29T21:32:13;35.4;;;22.1;;
72123;SDS011;63818;37.134;-8.548;2022-12-29T21:37:02;37.9;;;22.0;;
72123;SDS011;63818;37.134;-8.548;2022-12-29T21:41:50;41.4;;;22.0;;
72123;SDS011;63818;37.134;-8.548;2022-12-29T21:46:38;44.6;;;21.8;;
72123;SDS011;63818;37.134;-8.548;2022-12-29T21:51:25;39.2;;;20.7;;
72123;SDS011;63818;37.134;-8.548;2022-12-29T21:56:12;31.0;;;18.6;;
72123;SDS011;63818;37.134;-8.548;2022-12-29T22:01:10;26.4;;;16.0;;
72123;SDS011;63818;37.134;-8.548;2022-12-29T22:05:58;20.8;;;13.1;;
72123;SDS011;63818;37.134;-8.548;2022-12-29T22:10:47;20.4;;;12.4;;
72123;SDS011;63818;37.134;-8.548;2022-12-29T22:15:34;20.8;;;12.2;;
72123;SDS011;63818;37.134;-8.548;2022-12-29T22:20:23;21.9;;;12.1;;
72123;SDS011;63818;37.134;-8.548;2022-12-29T22:25:10;23.6;;;12.8;;
72123;SDS011;63818;37.134;-8.548;2022-12-29T22:29:57;23.3;;;12.2;;
72123;SDS011;63818;37.134;-8.548;2022-12-29T22:34:48;23.2;;;11.9;;
72123;SDS011;63818;37.134;-8.548;2022-12-29T22:39:35;26.1;;;13.1;;
72123;SDS011;63818;37.134;-8.548;2022-12-29T22:44:33;28.0;;;12.7;;
72123;SDS011;63818;37.134;-8.548;2022-12-29T22:49:24;26.8;;;12.4;;
72123;SDS011;63818;37.134;-8.548;2022-12-29T22:54:10;25.8;;;12.4;;
72123;SDS011;63818;37.134;-8.548;2022-12-29T22:58:58;25.7;;;12.4;;
72123;SDS011;63818;37.134;-8.548;2022-12-29T23:03:44;24.5;;;12.9;;
72123;SDS011;63818;37.134;-8.548;2022-12-29T23:08:31;22.5;;;12.9;;
72123;SDS011;63818;37.134;-8.548;2022-12-29T23:13:22;22.6;;;12.7;;
72123;SDS011;63818;37.134;-8.548;2022-12-29T23:18:10;21.4;;;12.0;;
72123;SDS011;63818;37.134;-8.548;2022-12-29T23:22:56;21.0;;;12.1;;
72123;SDS011;63818;37.134;-8.548;2022-12-29T23:27:42;23.6;;;12.7;;
72123;SDS011;63818;37.134;-8.548;2022-12-29T23:32:30;22.4;;;12.5;;
72123;SDS011;63818;37.134;-8.548;2022-12-29T23:37:17;19.7;;;12.0;;
72123;SDS011;63818;37.134;-8.548;2022-12-29T23:42:05;20.7;;;11.6;;
72123;SDS011;63818;37.134;-8.548;2022-12-29T23:46:51;23.3;;;11.5;;
72123;SDS011;63818;37.134;-8.548;2022-12-29T23:51:37;23.7;;;11.0;;
72123;SDS011;63818;37.134;-8.548;2022-12-29T23:56:23;22.9;;;10.4;;
